Portada
METAR-TAF:

METAR-TAF

Aeroports :

Xiamen, Xina

latitud: 24-29N, longitud: 118-05E, altitud: 139 m

Observació

L'informe es va fer fa 51 minuts, a les 20:00 UTC
Vent 4 kt del Nord
Temperatura 25°C
Humitat 65%
Pressió 1015 hPa
Visibilitat 10 km o més
sense núvols per sota de 1500 mi sense presència de cumulonimbus.

METAR: ZSAM 222000Z 01002MPS CAVOK 25/18 Q1015 NOSIG

Hora: 04:51 (20:51 UTC)

Pronòstic

L'informe es va fer fa 5 hores i 49 minuts, a les 15:02 UTC
Pronòstic vàlid del 22 a les 18 UTC al 23 a les 18 UTC
Vent 6 kt del Nord-Est
Visibilitat: 8000 m
Núvols disperses a una alçada de 3000 ft
Evolucionant progressivament
l' 23 a les 05 UTC al 23 a les 06 UTC
Vent 10 kt del Est/Sud-Est
Evolucionant progressivament
l' 23 a les 11 UTC al 23 a les 12 UTC
Vent 6 kt del Nord-Est

TAF: ZSAM 221502Z 2218/2318 04003MPS 8000 SCT030 TX32/2306Z TN23/2221Z BECMG 2305/2306 11005MPS BECMG 2311/2312 05003MPS

Observacions i pronòstics meteorològics de més de 4000 aeroports (METAR i TAF).

Les estacions disponibles són els punts grocs i vermells al mapa.

Posi el ratolí al punt desitjat per veure el nom de l'estació.

Feu clic per veure les observacions i els pronòstics meteorològics.

Per canviar el mapa: feu clic els botons verds amb una creu de color negre per apropar; al botó verd amb un guió per allunyar la imatge; o en les fletxes verdes per a mapes adjacents.


METAR-TAF: